createdAt,value
2023-05-19T00:01:50.487Z,11.39
2023-05-19T00:06:54.328Z,11.39
2023-05-19T00:11:57.812Z,11.41
2023-05-19T00:48:03.280Z,11.33
2023-05-19T00:53:07.107Z,11.31
2023-05-19T00:58:12.281Z,11.29
2023-05-19T01:03:20.567Z,11.26
2023-05-19T01:08:24.008Z,11.20
2023-05-19T01:13:28.334Z,11.19
2023-05-19T01:18:45.710Z,11.20
2023-05-19T01:24:11.618Z,11.29
2023-05-19T01:29:37.003Z,11.32
2023-05-19T01:34:44.395Z,11.30
2023-05-19T01:39:48.604Z,11.33
2023-05-19T01:48:12.907Z,11.34
2023-05-19T01:53:16.538Z,11.28
2023-05-19T01:58:28.705Z,11.31
2023-05-19T02:04:01.037Z,11.34
2023-05-19T02:09:40.822Z,11.40
2023-05-19T02:14:54.573Z,11.39
2023-05-19T02:19:57.613Z,11.35
2023-05-19T02:25:00.882Z,11.30
2023-05-19T02:30:05.165Z,11.27
2023-05-19T02:35:08.565Z,11.22
2023-05-19T02:40:11.774Z,11.21
2023-05-19T02:45:15.025Z,11.27
2023-05-19T02:50:18.116Z,11.33
2023-05-19T02:55:21.170Z,11.41
2023-05-19T03:00:24.382Z,11.46
2023-05-19T03:05:27.876Z,11.44
2023-05-19T03:10:31.768Z,11.41
2023-05-19T03:15:35.456Z,11.33
2023-05-19T03:20:40.914Z,11.31
2023-05-19T03:25:44.568Z,11.35
2023-05-19T03:30:50.249Z,11.37
2023-05-19T03:35:57.529Z,11.41
2023-05-19T03:41:01.004Z,11.48
2023-05-19T03:46:04.257Z,11.50
2023-05-19T03:51:31.329Z,11.46
2023-05-19T03:56:52.260Z,11.44
2023-05-19T04:01:55.428Z,11.45
2023-05-19T04:06:58.821Z,11.50
2023-05-19T04:12:05.261Z,11.56
2023-05-19T04:17:08.979Z,11.65
2023-05-19T04:22:12.171Z,11.68
2023-05-19T04:27:18.246Z,11.66
2023-05-19T04:32:25.994Z,11.66
2023-05-19T04:37:30.151Z,11.65
2023-05-19T04:42:34.083Z,11.69
2023-05-19T04:47:38.310Z,11.76
2023-05-19T04:52:43.222Z,11.82
2023-05-19T04:57:52.067Z,11.88
2023-05-19T05:02:57.855Z,11.92
2023-05-19T05:08:03.308Z,11.93
2023-05-19T05:13:11.909Z,11.93
2023-05-19T05:18:16.259Z,11.99
2023-05-19T05:23:19.604Z,12.06
2023-05-19T05:28:23.912Z,12.18
2023-05-19T05:33:27.562Z,12.24
2023-05-19T05:38:31.284Z,12.24
2023-05-19T05:43:35.821Z,12.24
2023-05-19T05:48:42.186Z,12.23
2023-05-19T05:53:52.058Z,12.21
2023-05-19T05:58:55.810Z,12.20
2023-05-19T06:03:58.967Z,12.28
2023-05-19T06:09:02.534Z,12.37
2023-05-19T06:14:05.957Z,12.41
2023-05-19T06:19:29.000Z,12.47
2023-05-19T06:24:32.017Z,12.45
2023-05-19T06:29:35.082Z,12.47
2023-05-19T06:34:40.688Z,12.47
2023-05-19T06:39:49.151Z,12.52
2023-05-19T06:44:57.658Z,12.58
2023-05-19T06:50:03.753Z,12.61
2023-05-19T06:55:08.985Z,12.60
2023-05-19T07:00:16.106Z,12.55
2023-05-19T07:05:22.992Z,12.55
2023-05-19T07:10:29.570Z,12.61
2023-05-19T07:15:33.238Z,12.68
2023-05-19T07:20:37.064Z,12.83
2023-05-19T07:25:46.000Z,12.88
2023-05-19T07:30:50.024Z,12.91
2023-05-19T07:35:53.548Z,12.92
2023-05-19T07:40:56.620Z,12.97
2023-05-19T07:45:59.849Z,12.99
2023-05-19T07:51:03.456Z,12.97
2023-05-19T07:56:06.893Z,12.99
2023-05-19T08:01:09.999Z,13.02
2023-05-19T08:06:13.112Z,13.05
2023-05-19T08:11:16.132Z,13.09
2023-05-19T08:16:19.211Z,13.09
2023-05-19T08:21:22.429Z,13.16
2023-05-19T08:26:26.447Z,13.31
2023-05-19T08:31:30.004Z,13.36
2023-05-19T08:36:34.030Z,13.44
2023-05-19T08:41:37.610Z,13.52
2023-05-19T08:48:14.754Z,13.49
2023-05-19T08:58:34.741Z,13.38
2023-05-19T09:03:38.468Z,13.38
2023-05-19T09:08:42.925Z,13.39
2023-05-19T09:13:46.278Z,13.40
2023-05-19T09:18:56.943Z,13.41
2023-05-19T09:24:08.041Z,13.51
2023-05-19T09:29:14.671Z,13.55
2023-05-19T09:34:18.608Z,13.57
2023-05-19T09:39:23.600Z,13.54
2023-05-19T09:44:30.730Z,13.55
2023-05-19T09:49:34.025Z,13.57
2023-05-19T09:54:37.438Z,13.65
2023-05-19T09:59:41.724Z,13.68
2023-05-19T10:04:45.389Z,13.67
2023-05-19T10:09:49.154Z,13.66
2023-05-19T10:14:54.977Z,13.68
2023-05-19T10:20:07.530Z,13.72
2023-05-19T10:25:11.757Z,13.74
2023-05-19T10:30:20.806Z,13.86
2023-05-19T10:35:50.804Z,14.00
2023-05-19T10:41:03.132Z,14.00
2023-05-19T10:46:06.586Z,14.02
2023-05-19T10:51:12.437Z,14.01
2023-05-19T10:56:30.122Z,14.00
2023-05-19T11:01:34.963Z,14.01
2023-05-19T11:06:40.515Z,14.06
2023-05-19T11:11:54.152Z,14.09
2023-05-19T11:16:59.092Z,14.15
2023-05-19T11:22:10.405Z,14.20
2023-05-19T11:27:31.754Z,14.26
2023-05-19T11:32:39.451Z,14.23
2023-05-19T11:37:43.180Z,14.17
2023-05-19T11:42:46.427Z,14.17
2023-05-19T11:48:01.400Z,14.19
2023-05-19T11:53:05.827Z,14.26
2023-05-19T11:58:09.348Z,14.33
2023-05-19T12:03:13.026Z,14.35
2023-05-19T12:08:19.318Z,14.33
2023-05-19T12:13:23.021Z,14.33
2023-05-19T12:18:30.891Z,14.35
2023-05-19T12:23:34.945Z,14.38
2023-05-19T12:28:37.917Z,14.41
2023-05-19T12:33:41.001Z,14.43
2023-05-19T12:38:45.727Z,14.44
2023-05-19T12:43:48.842Z,14.46
2023-05-19T12:48:52.037Z,14.53
2023-05-19T12:53:55.145Z,14.53
2023-05-19T12:59:01.281Z,14.49
2023-05-19T13:04:06.221Z,14.40
2023-05-19T13:09:10.989Z,14.36
2023-05-19T13:14:16.042Z,14.40
2023-05-19T13:24:26.632Z,14.42
2023-05-19T13:29:29.745Z,14.44
2023-05-19T13:34:32.747Z,14.45
2023-05-19T13:39:36.308Z,14.42
2023-05-19T13:44:39.615Z,14.41
2023-05-19T13:49:42.811Z,14.42
2023-05-19T13:54:45.835Z,14.46
2023-05-19T14:00:00.783Z,14.53
2023-05-19T14:05:15.006Z,14.51
2023-05-19T14:10:18.151Z,14.46
2023-05-19T14:15:21.435Z,14.45
2023-05-19T14:20:26.261Z,14.43
2023-05-19T14:25:30.515Z,14.41
2023-05-19T14:30:33.788Z,14.38
2023-05-19T14:35:36.975Z,14.39
2023-05-19T14:40:43.383Z,14.40
2023-05-19T14:45:46.625Z,14.41
2023-05-19T14:50:50.398Z,14.43
2023-05-19T14:55:53.700Z,14.42
2023-05-19T15:01:00.147Z,14.39
2023-05-19T15:06:03.576Z,14.35
2023-05-19T15:11:07.132Z,14.32
2023-05-19T15:16:17.524Z,14.31
2023-05-19T15:21:21.525Z,14.30
2023-05-19T15:26:24.702Z,14.33
2023-05-19T15:31:27.922Z,14.35
2023-05-19T15:36:31.700Z,14.36
2023-05-19T15:41:38.016Z,14.33
2023-05-19T15:46:41.486Z,14.31
2023-05-19T15:51:45.276Z,14.29
2023-05-19T15:56:48.295Z,14.27
2023-05-19T16:01:53.076Z,14.30
2023-05-19T16:06:56.660Z,14.34
2023-05-19T16:11:59.738Z,14.33
2023-05-19T16:17:03.859Z,14.31
2023-05-19T16:22:07.029Z,14.25
2023-05-19T16:27:10.132Z,14.18
2023-05-19T16:32:13.388Z,14.12
2023-05-19T16:37:16.553Z,14.09
2023-05-19T16:42:19.739Z,14.07
2023-05-19T16:47:23.674Z,14.11
2023-05-19T16:52:27.014Z,14.16
2023-05-19T16:57:30.133Z,14.20
2023-05-19T17:02:33.321Z,14.24
2023-05-19T17:07:36.678Z,14.24
2023-05-19T17:12:39.810Z,14.22
2023-05-19T17:17:42.900Z,14.19
2023-05-19T17:22:55.422Z,14.19
2023-05-19T17:27:59.135Z,14.20
2023-05-19T17:33:02.674Z,14.23
2023-05-19T17:38:06.001Z,14.26
2023-05-19T17:43:09.087Z,14.26
2023-05-19T17:48:12.368Z,14.25
2023-05-19T17:53:16.230Z,14.21
2023-05-19T17:58:20.186Z,14.13
2023-05-19T18:03:23.946Z,14.09
2023-05-19T18:08:28.872Z,14.15
2023-05-19T18:13:32.006Z,14.15
2023-05-19T18:18:38.881Z,14.11
2023-05-19T18:48:08.330Z,13.88
2023-05-19T18:53:12.196Z,13.89
2023-05-19T18:58:16.159Z,13.91
2023-05-19T19:03:19.571Z,13.89
2023-05-19T19:08:23.304Z,13.85
2023-05-19T19:13:29.587Z,13.81
2023-05-19T19:18:34.823Z,13.81
2023-05-19T19:23:38.572Z,13.88
2023-05-19T19:28:42.266Z,13.94
2023-05-19T19:33:45.812Z,14.03
2023-05-19T19:38:49.693Z,14.06
2023-05-19T19:43:53.367Z,14.03
2023-05-19T19:49:02.313Z,13.98
2023-05-19T19:54:05.763Z,13.96
2023-05-19T19:59:09.102Z,13.91
2023-05-19T20:04:12.655Z,13.90
2023-05-19T20:09:16.770Z,13.89
2023-05-19T20:14:20.197Z,13.88
2023-05-19T20:19:26.587Z,13.84
2023-05-19T20:24:29.961Z,13.78
2023-05-19T20:33:28.696Z,13.73
2023-05-19T20:38:32.015Z,13.81
2023-05-19T20:43:35.122Z,13.94
2023-05-19T20:48:38.334Z,13.94
2023-05-19T20:53:41.585Z,13.93
2023-05-19T20:58:44.884Z,13.88
2023-05-19T21:03:48.123Z,13.83
2023-05-19T21:08:51.435Z,13.77
2023-05-19T21:13:56.339Z,13.70
2023-05-19T21:19:00.462Z,13.70
2023-05-19T21:24:03.785Z,13.76
2023-05-19T21:33:29.018Z,13.80
2023-05-19T21:38:32.122Z,13.77
2023-05-19T21:43:35.226Z,13.71
2023-05-19T21:48:38.275Z,13.66
2023-05-19T21:53:41.324Z,13.61
2023-05-19T21:58:44.385Z,13.62
2023-05-19T22:03:48.036Z,13.68
2023-05-19T22:08:51.372Z,13.71
2023-05-19T22:13:54.947Z,13.71
2023-05-19T22:18:58.242Z,13.70
2023-05-19T22:24:01.373Z,13.63
2023-05-19T22:29:04.705Z,13.55
2023-05-19T22:34:08.265Z,13.55
2023-05-19T22:39:12.711Z,13.60
2023-05-19T22:44:16.517Z,13.67
2023-05-19T22:49:21.473Z,13.70
2023-05-19T22:54:24.543Z,13.70
2023-05-19T22:59:27.812Z,13.62
2023-05-19T23:04:32.304Z,13.54
2023-05-19T23:09:35.430Z,13.47
2023-05-19T23:14:38.743Z,13.52
2023-05-19T23:19:41.913Z,13.51
2023-05-19T23:24:44.928Z,13.54
2023-05-19T23:29:49.286Z,13.53
2023-05-19T23:34:52.444Z,13.45
2023-05-19T23:39:55.467Z,13.39
2023-05-19T23:44:59.844Z,13.35
2023-05-19T23:50:03.302Z,13.40
2023-05-19T23:55:07.784Z,13.49
